createdAt,value
2018-07-03T18:30:01.477Z,22.00
2018-07-03T18:34:05.280Z,22.70
2018-07-03T18:38:10.880Z,22.90
2018-07-03T18:42:14.329Z,23.70
2018-07-03T18:50:21.845Z,24.60
2018-07-03T18:54:25.122Z,25.00
2018-07-03T18:58:29.524Z,25.50
2018-07-03T19:02:32.978Z,26.00
2018-07-03T19:06:36.228Z,26.80
2018-07-03T19:14:42.602Z,27.50
2018-07-03T19:18:45.830Z,27.70
2018-07-03T19:26:52.032Z,28.70
2018-07-03T19:30:55.778Z,29.20
2018-07-03T19:35:00.090Z,30.00
2018-07-03T19:39:03.607Z,31.70
2018-07-03T19:47:34.981Z,38.00
2018-07-03T19:51:38.641Z,39.40
2018-07-03T19:55:42.011Z,41.00
2018-07-03T19:59:46.053Z,41.60
2018-07-03T20:03:49.288Z,41.70
2018-07-03T20:07:52.528Z,43.60
2018-07-03T20:11:55.888Z,44.60
2018-07-03T20:15:59.699Z,44.70
2018-07-03T20:20:03.144Z,45.40
2018-07-03T20:24:06.993Z,44.10
2018-07-03T20:28:10.281Z,43.40
2018-07-03T20:32:13.502Z,42.90
2018-07-03T20:36:16.740Z,43.10
2018-07-03T20:40:20.315Z,43.00
2018-07-03T20:48:27.733Z,44.60
2018-07-03T20:56:35.928Z,43.30
2018-07-03T21:00:39.181Z,42.60
2018-07-03T21:04:42.895Z,43.10
2018-07-03T21:08:47.463Z,43.20
2018-07-03T21:12:51.312Z,43.50
2018-07-03T21:16:54.625Z,44.70
2018-07-03T21:20:57.813Z,45.30
2018-07-03T21:25:01.060Z,46.30
2018-07-03T21:29:05.208Z,46.50
2018-07-03T21:33:08.478Z,47.60
2018-07-03T21:37:11.728Z,48.00
2018-07-03T21:41:15.062Z,47.00
2018-07-03T21:45:18.284Z,47.00
2018-07-03T21:49:21.566Z,47.20
2018-07-03T21:53:24.781Z,47.40
2018-07-03T21:57:28.728Z,48.20
2018-07-03T22:01:32.382Z,48.40
2018-07-03T22:05:36.061Z,48.40
2018-07-03T22:09:39.285Z,48.90
2018-07-03T22:17:45.453Z,50.40
2018-07-03T22:21:48.809Z,51.20
2018-07-03T22:25:51.964Z,50.60
2018-07-03T22:29:55.176Z,50.20
2018-07-03T22:33:58.397Z,49.20
2018-07-03T22:38:01.611Z,49.40
2018-07-03T22:42:04.922Z,48.90
2018-07-03T22:50:11.101Z,51.30
2018-07-03T22:54:14.318Z,51.70
2018-07-03T22:58:18.488Z,53.70
2018-07-03T23:02:21.725Z,54.10
2018-07-03T23:06:25.136Z,55.40
2018-07-03T23:10:28.365Z,55.00
2018-07-03T23:18:34.557Z,53.50
2018-07-03T23:22:37.776Z,52.10
2018-07-03T23:30:44.006Z,49.70
2018-07-03T23:34:47.224Z,52.30
2018-07-03T23:38:50.445Z,54.60
2018-07-03T23:42:53.676Z,55.40
2018-07-03T23:47:08.187Z,55.30
2018-07-03T23:51:22.889Z,55.00
2018-07-03T23:55:37.228Z,54.60
2018-07-03T23:59:51.816Z,55.40
